Time;durP1;ratioP1;P1;durP2;ratioP2;P2;SDS_P1;SDS_P2;PMS_P1;PMS_P2;Temp;Humidity;BMP_temperature;BMP_pressure;BME280_temperature;BME280_humidity;BME280_pressure;Samples;Min_cycle;Max_cycle;Signal;HPM_P1;HPM_P2
2023/07/22 00:02:05;;;;;;;6.33;5.73;;;;;;;;;;5034443;28;20769;-44
2023/07/22 00:04:32;;;;;;;6.33;5.13;;;16.60;99.90;;;;;;5034467;28;20851;-45
2023/07/22 00:06:59;;;;;;;5.77;5.27;;;;;;;;;;5033995;28;21145;-45
2023/07/22 00:09:25;;;;;;;5.40;4.93;;;16.60;99.90;;;;;;5034110;28;20430;-45
2023/07/22 00:11:52;;;;;;;7.17;5.10;;;16.60;99.90;;;;;;5034377;28;20435;-45
2023/07/22 00:14:19;;;;;;;5.83;5.20;;;;;;;;;;5034433;28;20435;-44
2023/07/22 00:16:45;;;;;;;6.37;5.40;;;16.70;99.90;;;;;;5033919;28;20448;-45
2023/07/22 00:19:14;;;;;;;7.40;5.30;;;;;;;;;;5034304;28;20773;-45
2023/07/22 00:21:41;;;;;;;5.80;5.10;;;;;;;;;;5034079;28;20933;-45
2023/07/22 00:24:08;;;;;;;10.13;6.20;;;16.70;99.90;;;;;;5033545;28;20914;-45
2023/07/22 00:26:34;;;;;;;7.70;5.43;;;16.70;99.90;;;;;;5034006;28;20538;-44
2023/07/22 00:29:02;;;;;;;5.90;5.40;;;;;;;;;;5033150;28;20729;-45
2023/07/22 00:31:29;;;;;;;5.73;5.23;;;;;;;;;;5032595;28;20853;-45
2023/07/22 00:33:56;;;;;;;6.13;5.63;;;;;;;;;;5033552;28;20434;-46
2023/07/22 00:36:24;;;;;;;10.93;7.63;;;16.80;99.90;;;;;;5032532;28;20459;-46
2023/07/22 00:38:52;;;;;;;5.20;4.70;;;16.80;99.90;;;;;;5032376;28;20471;-45
2023/07/22 00:41:19;;;;;;;5.80;5.30;;;16.90;99.90;;;;;;5032192;28;20461;-45
2023/07/22 00:43:46;;;;;;;6.47;5.87;;;;;;;;;;5033134;28;20474;-45
2023/07/22 00:46:13;;;;;;;8.87;5.50;;;;;;;;;;5032094;28;20951;-45
2023/07/22 00:48:40;;;;;;;6.00;5.30;;;;;;;;;;5032597;28;20511;-45
2023/07/22 00:51:07;;;;;;;6.43;5.83;;;;;;;;;;5033328;28;20414;-45
2023/07/22 00:53:36;;;;;;;6.87;5.30;;;;;;;;;;5033409;28;20527;-45
2023/07/22 00:56:03;;;;;;;6.00;5.40;;;16.90;99.90;;;;;;5031989;28;20456;-45
2023/07/22 00:58:29;;;;;;;6.10;5.50;;;16.90;99.90;;;;;;5032589;28;20812;-43
2023/07/22 01:00:56;;;;;;;5.87;5.23;;;;;;;;;;5032912;28;20455;-46
2023/07/22 01:03:25;;;;;;;6.60;5.90;;;17.00;99.90;;;;;;5033161;28;20528;-44
2023/07/22 01:05:52;;;;;;;9.30;5.50;;;;;;;;;;5032899;28;20483;-45
2023/07/22 01:08:19;;;;;;;5.13;4.63;;;17.00;99.90;;;;;;5033075;28;20467;-45
2023/07/22 01:10:48;;;;;;;5.90;5.40;;;;;;;;;;5033047;28;20433;-45
2023/07/22 01:13:15;;;;;;;8.50;5.97;;;;;;;;;;5031322;28;20460;-45
2023/07/22 01:15:42;;;;;;;7.50;6.00;;;;;;;;;;5032740;28;20510;-45
2023/07/22 01:18:09;;;;;;;6.70;5.83;;;17.00;99.90;;;;;;5031061;28;20441;-45
2023/07/22 01:20:37;;;;;;;7.53;6.10;;;;;;;;;;5031415;28;20970;-44
2023/07/22 01:23:06;;;;;;;6.67;5.60;;;17.00;99.90;;;;;;5031630;28;20426;-45
2023/07/22 01:25:33;;;;;;;10.70;6.07;;;;;;;;;;5031644;28;20439;-46
2023/07/22 01:28:00;;;;;;;6.13;5.53;;;17.00;99.90;;;;;;5031021;28;20495;-45
2023/07/22 01:30:27;;;;;;;7.03;6.40;;;;;;;;;;5032328;28;20919;-46
2023/07/22 01:32:54;;;;;;;7.00;6.30;;;;;;;;;;5032831;28;20489;-45
2023/07/22 01:35:21;;;;;;;7.00;5.10;;;;;;;;;;5030994;28;21070;-45
2023/07/22 01:37:48;;;;;;;7.50;5.70;;;17.00;99.90;;;;;;5032075;28;20473;-44
2023/07/22 01:40:16;;;;;;;6.23;5.10;;;;;;;;;;5032144;28;20417;-45
2023/07/22 01:42:43;;;;;;;8.07;5.90;;;;;;;;;;5030811;28;20446;-43
2023/07/22 01:45:11;;;;;;;6.30;5.70;;;;;;;;;;5031042;28;20423;-45
2023/07/22 01:47:39;;;;;;;13.17;6.87;;;16.70;99.90;;;;;;5030939;28;20464;-46
2023/07/22 01:50:07;;;;;;;7.40;6.60;;;;;;;;;;5030656;28;20430;-44
2023/07/22 01:52:34;;;;;;;7.30;6.63;;;;;;;;;;5032261;28;20448;-46
2023/07/22 01:55:00;;;;;;;6.20;5.40;;;17.00;99.90;;;;;;5032340;28;20414;-45
2023/07/22 01:57:28;;;;;;;6.57;6.00;;;17.10;99.90;;;;;;5030913;28;20443;-44
2023/07/22 01:59:55;;;;;;;7.27;6.57;;;;;;;;;;5030534;28;20427;-44
2023/07/22 02:02:22;;;;;;;6.70;6.00;;;17.00;99.90;;;;;;5030853;28;20453;-46
2023/07/22 02:04:49;;;;;;;6.70;5.90;;;17.00;99.90;;;;;;5031017;28;20452;-45
2023/07/22 02:07:16;;;;;;;8.20;6.33;;;;;;;;;;5032251;28;20445;-44
2023/07/22 02:09:43;;;;;;;6.30;5.70;;;;;;;;;;5030695;28;20450;-44
2023/07/22 02:12:10;;;;;;;6.53;5.93;;;;;;;;;;5032360;28;20430;-44
2023/07/22 02:14:38;;;;;;;8.43;6.53;;;16.90;99.90;;;;;;5030928;28;20524;-45
2023/07/22 02:17:05;;;;;;;7.07;6.23;;;16.90;99.90;;;;;;5030896;28;20438;-44
2023/07/22 02:19:32;;;;;;;7.07;6.30;;;;;;;;;;5031867;28;20414;-45
2023/07/22 02:21:59;;;;;;;8.20;6.83;;;;;;;;;;5032745;28;20410;-44
2023/07/22 02:24:26;;;;;;;7.47;6.40;;;;;;;;;;5033932;28;20410;-46
2023/07/22 02:26:53;;;;;;;7.13;6.37;;;16.70;99.90;;;;;;5035904;28;20403;-45
2023/07/22 02:29:20;;;;;;;9.83;6.00;;;;;;;;;;5034376;28;20454;-45
2023/07/22 02:31:48;;;;;;;6.43;5.83;;;;;;;;;;5034738;28;20422;-44
2023/07/22 02:34:16;;;;;;;6.10;5.50;;;;;;;;;;5034617;28;20492;-45
2023/07/22 02:36:43;;;;;;;7.80;5.10;;;16.60;99.90;;;;;;5034380;28;20418;-44
2023/07/22 02:39:09;;;;;;;5.90;5.33;;;16.50;99.90;;;;;;5033943;28;20459;-45
2023/07/22 02:41:37;;;;;;;6.03;5.53;;;16.50;99.90;;;;;;5034455;28;20476;-45
2023/07/22 02:44:04;;;;;;;8.17;4.77;;;;;;;;;;5035635;28;20419;-44
2023/07/22 02:46:32;;;;;;;5.33;4.70;;;;;;;;;;5035553;28;20436;-45
2023/07/22 02:49:00;;;;;;;6.17;5.47;;;;;;;;;;5034942;28;20938;-44
2023/07/22 02:51:27;;;;;;;6.90;5.57;;;;;;;;;;5034253;28;20883;-45
2023/07/22 02:53:54;;;;;;;7.83;4.67;;;;;;;;;;5035386;28;20407;-44
2023/07/22 02:56:21;;;;;;;5.43;4.93;;;;;;;;;;5035374;28;20428;-46
2023/07/22 02:58:47;;;;;;;7.70;4.97;;;;;;;;;;5033454;28;20465;-46
2023/07/22 03:01:15;;;;;;;7.13;4.30;;;;;;;;;;5035024;28;20403;-45
2023/07/22 03:03:41;;;;;;;5.87;5.37;;;16.10;99.90;;;;;;5033803;28;20443;-45
2023/07/22 03:06:10;;;;;;;5.70;5.20;;;;;;;;;;5033885;28;20429;-45
2023/07/22 03:08:36;;;;;;;4.20;3.80;;;16.10;99.90;;;;;;5033402;28;20475;-45
2023/07/22 03:11:03;;;;;;;5.33;4.63;;;16.10;99.90;;;;;;5033784;28;20496;-46
2023/07/22 03:13:30;;;;;;;5.73;4.90;;;16.10;99.90;;;;;;5033683;28;20462;-45
2023/07/22 03:15:57;;;;;;;5.67;4.90;;;;;;;;;;5034888;28;20498;-45
2023/07/22 03:18:24;;;;;;;7.57;5.17;;;;;;;;;;5033247;28;20870;-45
2023/07/22 03:20:51;;;;;;;9.30;4.90;;;;;;;;;;5033568;28;20961;-45
2023/07/22 03:23:20;;;;;;;5.43;4.33;;;;;;;;;;5034862;28;20443;-44
2023/07/22 03:25:48;;;;;;;5.17;4.63;;;16.00;99.90;;;;;;5035005;28;20439;-44
2023/07/22 03:28:16;;;;;;;5.47;4.87;;;;;;;;;;5033131;28;20475;-44
2023/07/22 03:30:43;;;;;;;5.60;5.10;;;;;;;;;;5034612;28;20550;-45
2023/07/22 03:33:11;;;;;;;5.13;4.40;;;;;;;;;;5035517;28;20438;-45
2023/07/22 03:35:38;;;;;;;5.03;4.50;;;;;;;;;;5034833;28;20431;-43
2023/07/22 03:38:05;;;;;;;5.37;4.30;;;;;;;;;;5034491;28;20458;-46
2023/07/22 03:40:34;;;;;;;5.30;4.80;;;;;;;;;;5036644;28;20410;-45
2023/07/22 03:43:00;;;;;;;5.43;4.90;;;16.00;99.90;;;;;;5034863;28;20451;-45
2023/07/22 03:45:27;;;;;;;5.73;4.27;;;16.00;99.90;;;;;;5033228;28;20426;-45
2023/07/22 03:47:56;;;;;;;4.70;4.20;;;15.80;99.90;;;;;;5032998;28;20760;-45
2023/07/22 03:50:23;;;;;;;5.30;4.80;;;16.00;99.90;;;;;;5034092;28;20490;-45
2023/07/22 03:52:50;;;;;;;5.37;4.70;;;;;;;;;;5033145;28;20991;-44
2023/07/22 03:55:19;;;;;;;8.97;5.10;;;16.00;99.90;;;;;;5033005;28;20444;-46
2023/07/22 03:57:47;;;;;;;6.47;4.43;;;;;;;;;;5032870;28;20482;-45
2023/07/22 04:00:14;;;;;;;4.90;4.40;;;;;;;;;;5034010;28;20523;-44
2023/07/22 04:02:42;;;;;;;6.20;4.60;;;16.00;99.90;;;;;;5033178;28;21009;-45
2023/07/22 04:05:10;;;;;;;5.20;4.70;;;;;;;;;;5034217;28;20413;-45
2023/07/22 04:07:37;;;;;;;5.33;4.73;;;16.20;99.90;;;;;;5034234;28;20785;-45
2023/07/22 04:10:04;;;;;;;5.70;4.57;;;16.30;99.90;;;;;;5032563;28;20475;-45
2023/07/22 04:12:31;;;;;;;5.50;4.50;;;;;;;;;;5034227;28;20400;-46
2023/07/22 04:14:59;;;;;;;5.97;5.23;;;;;;;;;;5032864;28;20477;-45
2023/07/22 04:17:29;;;;;;;6.60;5.13;;;;;;;;;;5033989;28;20860;-44
2023/07/22 04:19:56;;;;;;;4.87;4.37;;;16.50;99.90;;;;;;5033894;28;21006;-45
2023/07/22 04:22:23;;;;;;;7.03;5.50;;;;;;;;;;5034052;28;20503;-45
2023/07/22 04:24:51;;;;;;;4.93;4.43;;;16.60;99.90;;;;;;5032611;28;20525;-45
2023/07/22 04:27:19;;;;;;;5.23;4.70;;;16.60;99.90;;;;;;5034006;28;20976;-45
2023/07/22 04:29:46;;;;;;;4.60;4.20;;;16.70;99.90;;;;;;5033503;28;20456;-46
2023/07/22 04:32:14;;;;;;;5.30;3.80;;;17.00;99.90;;;;;;5032228;28;20448;-47
2023/07/22 04:34:41;;;;;;;5.80;4.60;;;;;;;;;;5033816;28;20410;-45
2023/07/22 04:37:08;;;;;;;4.97;4.30;;;;;;;;;;5032127;28;20446;-45
2023/07/22 04:39:36;;;;;;;4.93;4.13;;;;;;;;;;5033296;28;20768;-45
2023/07/22 04:42:02;;;;;;;7.77;4.73;;;17.30;99.90;;;;;;5033912;28;20467;-45
2023/07/22 04:44:30;;;;;;;9.70;4.40;;;;;;;;;;5033489;28;20419;-45
2023/07/22 04:46:56;;;;;;;5.50;5.00;;;17.50;99.90;;;;;;5033309;28;20518;-45
2023/07/22 04:49:24;;;;;;;7.50;4.93;;;;;;;;;;5032245;28;20458;-45
2023/07/22 04:51:51;;;;;;;7.97;4.70;;;;;;;;;;5033496;28;20457;-46
2023/07/22 04:54:18;;;;;;;7.40;4.50;;;;;;;;;;5033202;28;20946;-45
2023/07/22 04:56:45;;;;;;;6.47;4.90;;;;;;;;;;5033766;28;20492;-45
2023/07/22 04:59:14;;;;;;;7.50;4.30;;;17.80;99.90;;;;;;5034510;28;20437;-45
2023/07/22 05:01:41;;;;;;;4.73;4.27;;;;;;;;;;5033549;28;20490;-45
2023/07/22 05:04:08;;;;;;;4.40;4.00;;;;;;;;;;5033162;28;20413;-46
2023/07/22 05:06:36;;;;;;;5.10;4.57;;;18.10;99.90;;;;;;5033226;28;20933;-44
2023/07/22 05:09:04;;;;;;;4.83;4.33;;;;;;;;;;5032681;28;20515;-44
2023/07/22 05:11:31;;;;;;;5.90;4.60;;;;;;;;;;5032903;28;20416;-45
2023/07/22 05:13:58;;;;;;;5.13;4.40;;;;;;;;;;5033480;28;20769;-45
2023/07/22 05:16:24;;;;;;;6.57;4.50;;;18.30;99.90;;;;;;5033109;28;20435;-46
2023/07/22 05:18:51;;;;;;;4.83;4.37;;;18.40;99.90;;;;;;5032583;28;20459;-46
2023/07/22 05:21:18;;;;;;;5.90;4.80;;;;;;;;;;5033416;28;20450;-46
2023/07/22 05:23:46;;;;;;;6.47;4.77;;;;;;;;;;5033142;28;20437;-46
2023/07/22 05:26:13;;;;;;;5.57;4.43;;;18.60;99.90;;;;;;5033227;28;20408;-45
2023/07/22 05:28:40;;;;;;;4.60;4.03;;;;;;;;;;5032884;28;20453;-46
2023/07/22 05:31:07;;;;;;;5.87;5.27;;;;;;;;;;5033251;28;20413;-46
2023/07/22 05:33:34;;;;;;;6.20;5.13;;;;;;;;;;5033008;28;21017;-45
2023/07/22 05:36:01;;;;;;;7.83;5.97;;;18.80;99.90;;;;;;5032947;28;20434;-45
2023/07/22 05:38:28;;;;;;;7.20;5.60;;;;;;;;;;5032247;28;20448;-45
2023/07/22 05:40:56;;;;;;;5.77;5.03;;;18.70;99.90;;;;;;5032611;28;20431;-47
2023/07/22 05:43:23;;;;;;;7.07;5.73;;;;;;;;;;5032489;28;20933;-45
2023/07/22 05:45:49;;;;;;;8.67;5.20;;;18.80;99.90;;;;;;5032261;28;20758;-45
2023/07/22 05:48:16;;;;;;;8.43;5.57;;;18.80;99.90;;;;;;5032020;28;20465;-45
2023/07/22 05:50:43;;;;;;;10.00;5.77;;;;;;;;;;5032386;28;20493;-45
2023/07/22 05:53:10;;;;;;;6.63;5.93;;;;;;;;;;5032729;28;20467;-46
2023/07/22 05:55:37;;;;;;;6.40;5.57;;;;;;;;;;5032647;28;20425;-47
2023/07/22 05:58:06;;;;;;;8.13;6.37;;;;;;;;;;5032570;28;20452;-46
2023/07/22 06:00:33;;;;;;;7.37;6.10;;;;;;;;;;5032528;28;20411;-45
2023/07/22 06:03:00;;;;;;;7.80;6.67;;;18.90;99.90;;;;;;5032957;28;20438;-45
2023/07/22 06:05:27;;;;;;;9.10;7.03;;;;;;;;;;5032662;28;20796;-45
2023/07/22 06:07:54;;;;;;;7.53;6.70;;;19.10;99.90;;;;;;5032466;28;20540;-45
2023/07/22 06:10:21;;;;;;;8.10;6.63;;;;;;;;;;5032383;28;20965;-45
2023/07/22 06:12:48;;;;;;;7.20;6.50;;;19.20;99.90;;;;;;5033512;28;20435;-46
2023/07/22 06:15:16;;;;;;;8.80;7.40;;;;;;;;;;5033426;28;20441;-45
2023/07/22 06:17:43;;;;;;;8.83;6.73;;;;;;;;;;5032724;28;20955;-45
2023/07/22 06:20:11;;;;;;;6.53;5.63;;;;;;;;;;5032865;28;20442;-45
2023/07/22 06:22:38;;;;;;;9.03;7.50;;;;;;;;;;5033073;28;20513;-45
2023/07/22 06:25:06;;;;;;;9.63;6.50;;;;;;;;;;5032984;28;20457;-45
2023/07/22 06:27:33;;;;;;;7.00;6.10;;;;;;;;;;5031908;28;20471;-45
2023/07/22 06:30:00;;;;;;;9.83;6.77;;;;;;;;;;5031784;28;20478;-45
2023/07/22 06:32:29;;;;;;;8.40;6.30;;;;;;;;;;5033085;28;20446;-44
2023/07/22 06:34:56;;;;;;;7.67;6.80;;;19.70;99.90;;;;;;5032913;28;20455;-47
2023/07/22 06:37:23;;;;;;;7.30;4.80;;;19.80;99.90;;;;;;5032294;28;20556;-46
2023/07/22 06:39:50;;;;;;;7.47;5.80;;;;;;;;;;5032678;28;20410;-46
2023/07/22 06:42:17;;;;;;;7.90;5.73;;;;;;;;;;5032485;28;20424;-45
2023/07/22 06:44:44;;;;;;;7.77;6.27;;;;;;;;;;5032848;28;20443;-45
2023/07/22 06:47:11;;;;;;;7.30;6.13;;;;;;;;;;5031053;28;20467;-45
2023/07/22 06:49:40;;;;;;;9.97;5.97;;;;;;;;;;5032133;28;20485;-45
2023/07/22 06:52:08;;;;;;;8.40;5.60;;;;;;;;;;5032467;28;20521;-45
2023/07/22 06:54:35;;;;;;;12.40;5.97;;;;;;;;;;5031944;28;20420;-46
2023/07/22 06:57:01;;;;;;;9.47;5.90;;;20.20;99.40;;;;;;5031808;28;20455;-44
2023/07/22 06:59:28;;;;;;;7.63;6.33;;;;;;;;;;5031472;28;20406;-44
2023/07/22 07:01:55;;;;;;;6.70;5.47;;;20.30;99.00;;;;;;5031375;28;20407;-45
2023/07/22 07:04:21;;;;;;;6.03;5.43;;;20.40;98.80;;;;;;5031344;28;20501;-45
2023/07/22 07:06:50;;;;;;;9.20;5.27;;;;;;;;;;5031684;28;20414;-46
2023/07/22 07:09:17;;;;;;;5.77;4.70;;;;;;;;;;5031348;28;20505;-48
2023/07/22 07:11:44;;;;;;;5.53;3.93;;;;;;;;;;5037043;28;20831;-47
2023/07/22 07:14:11;;;;;;;6.00;4.07;;;;;;;;;;5052414;28;20435;-45
2023/07/22 07:16:38;;;;;;;5.80;4.07;;;;;;;;;;5034947;28;20439;-45
2023/07/22 07:19:05;;;;;;;4.43;3.83;;;;;;;;;;5042028;28;20454;-46
2023/07/22 07:21:32;;;;;;;5.97;3.80;;;;;;;;;;5054863;28;20430;-44
2023/07/22 07:24:01;;;;;;;6.20;3.63;;;;;;;;;;5054660;28;20568;-45
2023/07/22 07:26:28;;;;;;;6.80;4.07;;;;;;;;;;5054835;28;20901;-45
2023/07/22 07:28:55;;;;;;;5.00;4.13;;;;;;;;;;5035623;28;20463;-45
2023/07/22 07:31:22;;;;;;;6.47;4.80;;;;;;;;;;5035481;28;20486;-46
2023/07/22 07:33:49;;;;;;;6.20;3.87;;;;;;;;;;5036853;28;20489;-45
2023/07/22 07:36:16;;;;;;;8.77;4.60;;;;;;;;;;5034291;28;20444;-46
2023/07/22 07:38:43;;;;;;;6.63;4.60;;;;;;;;;;5033948;28;20439;-47
2023/07/22 07:41:12;;;;;;;6.17;4.80;;;;;;;;;;5034514;28;20449;-46
2023/07/22 07:43:39;;;;;;;5.83;4.17;;;;;;;;;;5049813;28;20579;-46
2023/07/22 07:46:21;;;;;;;6.63;4.50;;;;;;;;;;5053835;28;20448;-46
2023/07/22 07:48:48;;;;;;;5.10;4.17;;;;;;;;;;5054356;28;20462;-46
2023/07/22 07:51:15;;;;;;;6.60;3.97;;;;;;;;;;5054594;28;20486;-46
2023/07/22 07:53:43;;;;;;;8.20;4.50;;;;;;;;;;5046346;28;20476;-46
2023/07/22 07:56:12;;;;;;;6.03;4.37;;;;;;;;;;5037093;28;20454;-46
2023/07/22 07:58:39;;;;;;;9.10;4.87;;;;;;;;;;5053514;28;20326;-45
2023/07/22 08:01:06;;;;;;;5.50;4.10;;;;;;;;;;5045639;28;20813;-45
2023/07/22 08:03:34;;;;;;;6.17;3.43;;;;;;;;;;5034472;28;20432;-45
2023/07/22 08:06:01;;;;;;;11.20;4.83;;;;;;;;;;5049715;28;20458;-44
2023/07/22 08:08:28;;;;;;;7.20;4.80;;;;;;;;;;5041176;28;21019;-45
2023/07/22 08:10:59;;;;;;;7.40;4.93;;;;;;;;;;5053736;28;20577;-45
2023/07/22 08:13:29;;;;;;;7.40;4.00;;;21.80;92.10;;;;;;5054373;28;20432;-45
2023/07/22 08:15:56;;;;;;;6.20;4.30;;;;;;;;;;5054224;28;20967;-44
2023/07/22 08:18:23;;;;;;;7.17;3.90;;;;;;;;;;5049552;28;20453;-46
2023/07/22 08:20:50;;;;;;;5.40;3.97;;;;;;;;;;5034145;28;20442;-46
2023/07/22 08:23:17;;;;;;;5.17;4.30;;;;;;;;;;5032747;28;20418;-45
2023/07/22 08:25:44;;;;;;;7.70;4.50;;;;;;;;;;5034505;28;20441;-46
2023/07/22 08:28:11;;;;;;;5.30;4.47;;;21.50;91.20;;;;;;5053110;28;20463;-46
2023/07/22 08:30:40;;;;;;;6.00;4.77;;;;;;;;;;5053228;28;20484;-45
2023/07/22 08:33:08;;;;;;;6.80;4.40;;;;;;;;;;5053384;28;20433;-46
2023/07/22 08:35:35;;;;;;;8.40;5.50;;;;;;;;;;5053279;28;20432;-46
2023/07/22 08:38:03;;;;;;;6.35;5.05;;;;;;;;;;5050728;28;20774;-46
2023/07/22 08:40:34;;;;;;;6.33;4.77;;;21.70;90.30;;;;;;5053258;28;20201;-46
2023/07/22 08:43:01;;;;;;;9.67;5.50;;;;;;;;;;5053119;28;20465;-45
2023/07/22 08:45:31;;;;;;;10.83;5.10;;;21.70;90.30;;;;;;5052956;28;20412;-44
2023/07/22 08:48:00;;;;;;;9.57;5.00;;;;;;;;;;5053265;28;20453;-45
2023/07/22 08:50:31;;;;;;;6.07;4.97;;;21.60;90.00;;;;;;5055029;28;20496;-45
2023/07/22 08:52:59;;;;;;;6.23;4.90;;;;;;;;;;5034341;28;20825;-45
2023/07/22 08:55:26;;;;;;;6.73;5.00;;;;;;;;;;5033531;28;20442;-46
2023/07/22 08:57:54;;;;;;;6.27;4.70;;;;;;;;;;5033458;28;20541;-45
2023/07/22 09:00:21;;;;;;;6.60;4.70;;;;;;;;;;5033679;28;20453;-46
2023/07/22 09:02:50;;;;;;;9.83;4.80;;;;;;;;;;5033908;28;20541;-46
2023/07/22 09:05:18;;;;;;;6.20;4.70;;;;;;;;;;5032847;28;20449;-46
2023/07/22 09:07:45;;;;;;;7.40;4.47;;;;;;;;;;5032613;28;20461;-46
2023/07/22 09:10:12;;;;;;;5.07;4.50;;;;;;;;;;5032957;28;20814;-47
2023/07/22 09:12:40;;;;;;;7.17;4.80;;;;;;;;;;5033875;28;20511;-46
2023/07/22 09:15:10;;;;;;;7.10;4.63;;;21.90;88.30;;;;;;5033122;28;20482;-46
2023/07/22 09:17:37;;;;;;;5.33;4.60;;;;;;;;;;5033092;28;20580;-46
2023/07/22 09:20:06;;;;;;;7.20;4.20;;;22.00;87.40;;;;;;5032372;28;20466;-46
2023/07/22 09:22:34;;;;;;;6.07;4.23;;;;;;;;;;5032864;28;20435;-46
2023/07/22 09:25:16;;;;;;;5.93;4.33;;;;;;;;;;5033657;28;20923;-46
2023/07/22 09:27:43;;;;;;;7.43;4.03;;;;;;;;;;5032735;28;20512;-46
2023/07/22 09:30:21;;;;;;;5.13;4.47;;;;;;;;;;5032119;28;20558;-45
2023/07/22 09:32:48;;;;;;;8.17;4.40;;;;;;;;;;5033232;28;20822;-46
2023/07/22 09:35:15;;;;;;;4.30;3.53;;;;;;;;;;5032228;28;20473;-47
2023/07/22 09:37:44;;;;;;;5.20;4.03;;;;;;;;;;5032058;28;20515;-45
2023/07/22 09:40:18;;;;;;;4.68;3.60;;;;;;;;;;5032167;28;20802;-47
2023/07/22 09:42:49;;;;;;;8.53;4.43;;;;;;;;;;5033352;28;20203;-47
2023/07/22 09:45:17;;;;;;;4.60;3.50;;;;;;;;;;5033201;28;20447;-46
2023/07/22 09:47:45;;;;;;;5.63;3.80;;;;;;;;;;5031006;28;20429;-45
2023/07/22 09:50:13;;;;;;;4.23;3.83;;;;;;;;;;5032479;28;20196;-47
2023/07/22 09:52:47;;;;;;;7.20;4.53;;;;;;;;;;5031626;28;20439;-46
2023/07/22 09:55:14;;;;;;;7.00;3.83;;;;;;;;;;5032935;28;20438;-47
2023/07/22 09:57:44;;;;;;;4.40;2.50;;;;;;;;;;5032352;28;20450;-46
2023/07/22 10:00:14;;;;;;;4.93;2.77;;;;;;;;;;5032295;28;20481;-46
2023/07/22 10:02:42;;;;;;;4.00;3.13;;;;;;;;;;5032391;28;20932;-46
2023/07/22 10:05:10;;;;;;;7.70;2.73;;;;;;;;;;5031118;28;20597;-46
2023/07/22 10:07:39;;;;;;;4.50;3.33;;;;;;;;;;5034058;28;21068;-46
2023/07/22 10:10:08;;;;;;;3.70;2.93;;;23.40;78.80;;;;;;5031880;28;20464;-47
2023/07/22 10:12:35;;;;;;;4.30;3.27;;;;;;;;;;5033531;28;20439;-49
2023/07/22 10:15:03;;;;;;;5.10;3.45;;;;;;;;;;5033878;28;20402;-46
2023/07/22 10:17:30;;;;;;;3.73;2.77;;;23.50;75.70;;;;;;5033576;28;20229;-46
2023/07/22 10:19:57;;;;;;;3.30;2.33;;;;;;;;;;5048680;28;20462;-46
2023/07/22 10:22:25;;;;;;;4.18;3.20;;;24.00;72.40;;;;;;5051359;28;20420;-47
2023/07/22 10:24:53;;;;;;;4.97;3.40;;;;;;;;;;5052669;28;20419;-47
2023/07/22 10:27:22;;;;;;;5.30;2.97;;;24.10;74.50;;;;;;5052961;28;20222;-45
2023/07/22 10:29:49;;;;;;;5.57;4.03;;;;;;;;;;5053816;28;20444;-47
2023/07/22 10:32:17;;;;;;;5.10;3.60;;;;;;;;;;5051775;28;20861;-46
2023/07/22 10:34:44;;;;;;;5.00;3.60;;;;;;;;;;5052395;28;21032;-45
2023/07/22 10:37:11;;;;;;;7.03;3.53;;;;;;;;;;5052638;28;20845;-47
2023/07/22 10:39:38;;;;;;;3.80;3.10;;;;;;;;;;5054296;28;20432;-46
2023/07/22 10:42:06;;;;;;;4.20;3.10;;;;;;;;;;5052442;28;20531;-46
2023/07/22 10:44:34;;;;;;;4.03;3.40;;;;;;;;;;5052812;28;20440;-46
2023/07/22 10:47:03;;;;;;;5.70;3.90;;;23.70;72.70;;;;;;5054007;28;20478;-45
2023/07/22 10:49:44;;;;;;;3.63;2.90;;;;;;;;;;5055279;28;20452;-46
2023/07/22 10:52:13;;;;;;;6.40;3.20;;;;;;;;;;5055916;28;20480;-46
2023/07/22 10:54:40;;;;;;;5.40;3.33;;;;;;;;;;5056203;28;20432;-46
2023/07/22 10:57:23;;;;;;;3.90;3.47;;;;;;;;;;5055917;28;20507;-47
2023/07/22 10:59:52;;;;;;;3.20;2.80;;;;;;;;;;5055140;28;20469;-48
2023/07/22 11:02:25;;;;;;;4.07;3.67;;;;;;;;;;5036236;28;20434;-46
2023/07/22 11:04:52;;;;;;;4.87;3.10;;;;;;;;;;5036618;28;20504;-46
2023/07/22 11:07:31;;;;;;;4.30;3.43;;;;;;;;;;5036249;28;20781;-47
2023/07/22 11:09:58;;;;;;;5.43;3.03;;;;;;;;;;5035092;28;20433;-47
2023/07/22 11:12:26;;;;;;;3.50;3.00;;;;;;;;;;5035361;28;20485;-46
2023/07/22 11:15:03;;;;;;;6.43;3.80;;;;;;;;;;5035973;28;20448;-45
2023/07/22 11:17:31;;;;;;;5.13;3.80;;;;;;;;;;5036321;28;20476;-46
2023/07/22 11:19:58;;;;;;;4.43;3.27;;;;;;;;;;5053742;28;20794;-46
2023/07/22 11:22:25;;;;;;;4.68;3.92;;;;;;;;;;5053556;28;20436;-47
2023/07/22 11:24:52;;;;;;;5.13;3.77;;;;;;;;;;5056596;28;20276;-46
2023/07/22 11:27:20;;;;;;;8.23;4.00;;;;;;;;;;5055419;28;20463;-47
2023/07/22 11:29:47;;;;;;;5.93;3.50;;;;;;;;;;5055202;28;20443;-47
2023/07/22 11:32:17;;;;;;;6.37;4.43;;;;;;;;;;5054989;28;20481;-46
2023/07/22 11:34:45;;;;;;;4.27;3.87;;;24.30;67.40;;;;;;5055575;28;20930;-47
2023/07/22 11:37:13;;;;;;;6.10;4.67;;;;;;;;;;5055280;28;20495;-46
2023/07/22 11:39:41;;;;;;;5.03;4.00;;;;;;;;;;5055293;28;20440;-47
2023/07/22 11:42:08;;;;;;;5.17;4.30;;;;;;;;;;5055060;28;20468;-46
2023/07/22 11:44:35;;;;;;;5.83;4.40;;;;;;;;;;5055216;28;20529;-46
2023/07/22 11:47:03;;;;;;;7.23;4.40;;;;;;;;;;5055208;28;20457;-47
2023/07/22 11:49:32;;;;;;;5.73;4.43;;;;;;;;;;5054622;28;20938;-46
2023/07/22 11:52:00;;;;;;;5.53;3.87;;;;;;;;;;5055513;28;20482;-46
2023/07/22 11:54:28;;;;;;;7.43;3.97;;;;;;;;;;5054427;28;20433;-46
2023/07/22 11:56:55;;;;;;;5.00;4.07;;;;;;;;;;5053977;28;20444;-46
2023/07/22 11:59:35;;;;;;;7.03;4.00;;;;;;;;;;5053359;28;20970;-46
2023/07/22 12:02:03;;;;;;;5.40;4.17;;;;;;;;;;5036320;28;20509;-47
2023/07/22 12:04:31;;;;;;;5.93;4.20;;;24.50;64.40;;;;;;5034837;28;20932;-46
2023/07/22 12:06:58;;;;;;;4.27;3.57;;;;;;;;;;5034829;28;20437;-47
2023/07/22 12:09:25;;;;;;;5.90;4.00;;;;;;;;;;5034164;28;20435;-47
2023/07/22 12:11:57;;;;;;;8.63;4.30;;;;;;;;;;5034283;28;20908;-46
2023/07/22 12:14:24;;;;;;;4.80;4.33;;;24.70;63.20;;;;;;5034732;28;20531;-48
2023/07/22 12:16:54;;;;;;;5.43;4.50;;;;;;;;;;5033533;28;20900;-48
2023/07/22 12:19:21;;;;;;;8.63;4.70;;;;;;;;;;5045851;28;20200;-47
2023/07/22 12:21:49;;;;;;;5.97;4.33;;;;;;;;;;5054402;28;20439;-47
2023/07/22 12:24:16;;;;;;;6.53;4.33;;;;;;;;;;5054352;28;20559;-46
2023/07/22 12:26:43;;;;;;;5.77;4.40;;;;;;;;;;5054157;28;20438;-46
2023/07/22 12:29:11;;;;;;;5.30;4.10;;;;;;;;;;5054350;28;20440;-47
2023/07/22 12:31:37;;;;;;;5.60;4.20;;;;;;;;;;5054663;28;20474;-46
2023/07/22 12:34:04;;;;;;;6.07;4.40;;;;;;;;;;5053808;28;20770;-47
2023/07/22 12:36:31;;;;;;;6.23;4.13;;;;;;;;;;5054397;28;20443;-47
2023/07/22 12:39:01;;;;;;;5.53;4.40;;;;;;;;;;5054992;28;20816;-46
2023/07/22 12:41:28;;;;;;;6.37;4.10;;;;;;;;;;5055299;28;20446;-46
2023/07/22 12:43:55;;;;;;;5.77;4.43;;;;;;;;;;5054464;28;20451;-46
2023/07/22 12:46:22;;;;;;;8.00;4.87;;;;;;;;;;5050987;28;20526;-46
2023/07/22 12:48:49;;;;;;;5.70;4.82;;;;;;;;;;5032463;28;20433;-46
2023/07/22 12:51:16;;;;;;;7.70;4.90;;;;;;;;;;5033072;28;20455;-46
2023/07/22 12:53:43;;;;;;;4.83;4.33;;;;;;;;;;5034105;28;20201;-47
2023/07/22 12:56:11;;;;;;;5.67;4.60;;;25.80;59.40;;;;;;5033427;28;20453;-46
2023/07/22 12:58:38;;;;;;;5.60;3.80;;;;;;;;;;5035066;28;20987;-47
2023/07/22 13:01:05;;;;;;;5.17;4.67;;;;;;;;;;5053309;28;20449;-48
2023/07/22 13:03:32;;;;;;;7.80;4.70;;;;;;;;;;5052939;28;20850;-46
2023/07/22 13:05:59;;;;;;;6.30;4.40;;;;;;;;;;5053748;28;20717;-47
2023/07/22 13:08:26;;;;;;;6.63;4.63;;;;;;;;;;5054586;28;20453;-46
2023/07/22 13:10:54;;;;;;;5.37;4.60;;;;;;;;;;5053466;28;20438;-47
2023/07/22 13:13:22;;;;;;;5.87;4.87;;;;;;;;;;5052971;28;20917;-47
2023/07/22 13:15:49;;;;;;;4.80;4.30;;;;;;;;;;5053149;28;20441;-48
2023/07/22 13:18:16;;;;;;;7.70;4.63;;;;;;;;;;5049363;28;20973;-47
2023/07/22 13:20:44;;;;;;;7.10;5.30;;;;;;;;;;5032846;28;20436;-48
2023/07/22 13:23:11;;;;;;;5.40;4.70;;;;;;;;;;5032635;28;20495;-46
2023/07/22 13:25:38;;;;;;;5.83;4.90;;;;;;;;;;5032961;28;20777;-47
2023/07/22 13:28:05;;;;;;;5.00;4.50;;;;;;;;;;5032765;28;20979;-47
2023/07/22 13:30:33;;;;;;;5.77;4.93;;;;;;;;;;5032634;28;20522;-46
2023/07/22 13:33:00;;;;;;;4.90;4.40;;;;;;;;;;5033187;28;20479;-46
2023/07/22 13:35:27;;;;;;;7.37;5.67;;;;;;;;;;5033673;28;20431;-47
2023/07/22 13:37:54;;;;;;;5.70;4.97;;;;;;;;;;5031985;28;20471;-46
2023/07/22 13:40:21;;;;;;;5.37;4.20;;;;;;;;;;5033099;28;20405;-46
2023/07/22 13:42:49;;;;;;;6.33;4.83;;;;;;;;;;5033136;28;20446;-47
2023/07/22 13:45:16;;;;;;;4.97;4.47;;;;;;;;;;5032330;28;20428;-45
2023/07/22 13:47:44;;;;;;;5.00;3.90;;;;;;;;;;5032430;28;20456;-46
2023/07/22 13:50:11;;;;;;;5.93;4.80;;;;;;;;;;5031818;28;20442;-46
2023/07/22 13:52:40;;;;;;;6.13;4.60;;;;;;;;;;5032158;28;20932;-46
2023/07/22 13:55:07;;;;;;;6.20;5.13;;;;;;;;;;5032005;28;20443;-47
2023/07/22 13:57:34;;;;;;;7.30;4.10;;;;;;;;;;5032747;28;20471;-46
2023/07/22 14:00:06;;;;;;;5.23;4.53;;;;;;;;;;5034875;28;21001;-46
2023/07/22 14:02:39;;;;;;;5.17;4.67;;;;;;;;;;5053478;28;20450;-45
2023/07/22 14:05:09;;;;;;;5.40;4.60;;;;;;;;;;5052618;28;20437;-45
2023/07/22 14:07:36;;;;;;;5.20;3.80;;;;;;;;;;5051689;28;20458;-46
2023/07/22 14:10:04;;;;;;;8.63;4.70;;;;;;;;;;5051373;28;20434;-46
2023/07/22 14:12:31;;;;;;;5.00;4.00;;;25.10;59.00;;;;;;5052369;28;20449;-46
2023/07/22 14:14:58;;;;;;;7.13;4.80;;;;;;;;;;5053922;28;20433;-46